sensor_id;sensor_type;location;lat;lon;timestamp;pressure;altitude;pressure_sealevel;temperature;humidity
56721;BME280;53183;47.412;18.884;2022-12-07T00:01:29;99181.59;;;0.97;100.00
56721;BME280;53183;47.412;18.884;2022-12-07T00:04:00;99183.41;;;0.93;100.00
56721;BME280;53183;47.412;18.884;2022-12-07T00:06:37;99179.06;;;0.92;100.00
56721;BME280;53183;47.412;18.884;2022-12-07T00:09:06;99169.59;;;0.89;100.00
56721;BME280;53183;47.412;18.884;2022-12-07T00:11:33;99174.81;;;0.89;100.00
56721;BME280;53183;47.412;18.884;2022-12-07T00:14:04;99161.88;;;0.85;100.00
56721;BME280;53183;47.412;18.884;2022-12-07T00:16:33;99166.28;;;0.83;100.00
56721;BME280;53183;47.412;18.884;2022-12-07T00:19:01;99165.44;;;0.81;100.00
56721;BME280;53183;47.412;18.884;2022-12-07T00:21:31;99165.47;;;0.78;100.00
56721;BME280;53183;47.412;18.884;2022-12-07T00:23:59;99163.00;;;0.72;100.00
56721;BME280;53183;47.412;18.884;2022-12-07T00:26:28;99157.91;;;0.65;100.00
56721;BME280;53183;47.412;18.884;2022-12-07T00:29:00;99159.59;;;0.68;100.00
56721;BME280;53183;47.412;18.884;2022-12-07T00:31:30;99150.16;;;0.62;100.00
56721;BME280;53183;47.412;18.884;2022-12-07T00:33:58;99146.97;;;0.50;100.00
56721;BME280;53183;47.412;18.884;2022-12-07T00:36:25;99152.91;;;0.56;100.00
56721;BME280;53183;47.412;18.884;2022-12-07T00:38:54;99149.56;;;0.48;100.00
56721;BME280;53183;47.412;18.884;2022-12-07T00:41:23;99158.28;;;0.47;100.00
56721;BME280;53183;47.412;18.884;2022-12-07T00:43:51;99157.38;;;0.50;100.00
56721;BME280;53183;47.412;18.884;2022-12-07T00:46:20;99152.12;;;0.51;100.00
56721;BME280;53183;47.412;18.884;2022-12-07T00:48:49;99158.81;;;0.64;100.00
56721;BME280;53183;47.412;18.884;2022-12-07T00:51:18;99155.50;;;0.56;100.00
56721;BME280;53183;47.412;18.884;2022-12-07T00:53:45;99155.53;;;0.55;100.00
56721;BME280;53183;47.412;18.884;2022-12-07T00:56:24;99164.13;;;0.58;100.00
56721;BME280;53183;47.412;18.884;2022-12-07T00:58:53;99159.03;;;0.52;100.00
56721;BME280;53183;47.412;18.884;2022-12-07T01:01:20;99146.06;;;0.51;100.00
56721;BME280;53183;47.412;18.884;2022-12-07T01:03:48;99150.41;;;0.50;100.00
56721;BME280;53183;47.412;18.884;2022-12-07T01:06:16;99155.53;;;0.55;100.00
56721;BME280;53183;47.412;18.884;2022-12-07T01:08:44;99151.97;;;0.59;100.00
56721;BME280;53183;47.412;18.884;2022-12-07T01:11:14;99146.75;;;0.60;100.00
56721;BME280;53183;47.412;18.884;2022-12-07T01:13:43;99143.16;;;0.67;100.00
56721;BME280;53183;47.412;18.884;2022-12-07T01:16:12;99152.53;;;0.76;100.00
56721;BME280;53183;47.412;18.884;2022-12-07T01:18:41;99146.69;;;0.63;100.00
56721;BME280;53183;47.412;18.884;2022-12-07T01:21:17;99145.97;;;0.55;100.00
56721;BME280;53183;47.412;18.884;2022-12-07T01:23:45;99139.13;;;0.51;100.00
56721;BME280;53183;47.412;18.884;2022-12-07T01:26:15;99136.56;;;0.48;100.00
56721;BME280;53183;47.412;18.884;2022-12-07T01:28:43;99145.19;;;0.52;100.00
56721;BME280;53183;47.412;18.884;2022-12-07T01:31:15;99134.88;;;0.45;100.00
56721;BME280;53183;47.412;18.884;2022-12-07T01:33:46;99136.69;;;0.42;100.00
56721;BME280;53183;47.412;18.884;2022-12-07T01:38:42;99133.97;;;0.50;100.00
56721;BME280;53183;47.412;18.884;2022-12-07T01:41:10;99135.62;;;0.52;100.00
56721;BME280;53183;47.412;18.884;2022-12-07T01:44:11;99138.84;;;0.65;100.00
56721;BME280;53183;47.412;18.884;2022-12-07T01:46:39;99143.88;;;0.74;100.00
56721;BME280;53183;47.412;18.884;2022-12-07T01:49:11;99140.19;;;0.86;100.00
56721;BME280;53183;47.412;18.884;2022-12-07T01:51:42;99140.81;;;0.97;100.00
56721;BME280;53183;47.412;18.884;2022-12-07T01:54:11;99129.25;;;1.12;100.00
56721;BME280;53183;47.412;18.884;2022-12-07T01:56:42;99122.91;;;1.24;100.00
56721;BME280;53183;47.412;18.884;2022-12-07T01:59:14;99127.84;;;1.36;100.00
56721;BME280;53183;47.412;18.884;2022-12-07T02:01:41;99120.62;;;1.49;100.00
56721;BME280;53183;47.412;18.884;2022-12-07T02:04:10;99125.69;;;1.55;100.00
56721;BME280;53183;47.412;18.884;2022-12-07T02:06:38;99123.69;;;1.64;100.00
56721;BME280;53183;47.412;18.884;2022-12-07T02:09:05;99126.25;;;1.68;100.00
56721;BME280;53183;47.412;18.884;2022-12-07T02:11:33;99131.31;;;1.74;100.00
56721;BME280;53183;47.412;18.884;2022-12-07T02:14:00;99126.03;;;1.77;100.00
56721;BME280;53183;47.412;18.884;2022-12-07T02:16:55;99126.59;;;1.90;100.00
56721;BME280;53183;47.412;18.884;2022-12-07T02:27:47;99126.00;;;2.12;100.00
56721;BME280;53183;47.412;18.884;2022-12-07T02:30:22;99126.25;;;2.03;100.00
56721;BME280;53183;47.412;18.884;2022-12-07T02:33:40;99119.44;;;1.98;100.00
56721;BME280;53183;47.412;18.884;2022-12-07T02:44:06;99116.28;;;1.85;100.00
56721;BME280;53183;47.412;18.884;2022-12-07T02:46:39;99119.69;;;1.87;100.00
56721;BME280;53183;47.412;18.884;2022-12-07T02:49:08;99111.78;;;1.92;100.00
56721;BME280;53183;47.412;18.884;2022-12-07T02:51:44;99114.25;;;1.96;100.00
56721;BME280;53183;47.412;18.884;2022-12-07T02:54:15;99114.16;;;2.01;100.00
56721;BME280;53183;47.412;18.884;2022-12-07T02:56:50;99102.69;;;2.08;100.00
56721;BME280;53183;47.412;18.884;2022-12-07T03:00:00;99100.84;;;2.11;100.00
56721;BME280;53183;47.412;18.884;2022-12-07T03:15:47;99104.19;;;2.49;100.00
56721;BME280;53183;47.412;18.884;2022-12-07T03:18:20;99099.09;;;2.45;100.00
56721;BME280;53183;47.412;18.884;2022-12-07T03:20:51;99096.59;;;2.40;100.00
56721;BME280;53183;47.412;18.884;2022-12-07T03:23:21;99092.28;;;2.39;100.00
56721;BME280;53183;47.412;18.884;2022-12-07T03:25:56;99094.06;;;2.39;100.00
56721;BME280;53183;47.412;18.884;2022-12-07T03:28:32;99080.94;;;2.42;100.00
56721;BME280;53183;47.412;18.884;2022-12-07T03:33:39;99089.59;;;2.42;100.00
56721;BME280;53183;47.412;18.884;2022-12-07T03:36:32;99092.22;;;2.42;100.00
56721;BME280;53183;47.412;18.884;2022-12-07T03:41:36;99098.97;;;2.49;100.00
56721;BME280;53183;47.412;18.884;2022-12-07T03:44:12;99089.38;;;2.50;100.00
56721;BME280;53183;47.412;18.884;2022-12-07T03:52:24;99106.00;;;2.47;100.00
56721;BME280;53183;47.412;18.884;2022-12-07T03:55:35;99106.00;;;2.47;100.00
56721;BME280;53183;47.412;18.884;2022-12-07T03:58:11;99100.63;;;2.53;100.00
56721;BME280;53183;47.412;18.884;2022-12-07T04:00:41;99102.00;;;2.65;100.00
56721;BME280;53183;47.412;18.884;2022-12-07T04:03:09;99101.69;;;2.76;100.00
56721;BME280;53183;47.412;18.884;2022-12-07T04:05:39;99102.69;;;2.72;100.00
56721;BME280;53183;47.412;18.884;2022-12-07T04:08:06;99109.44;;;2.79;100.00
56721;BME280;53183;47.412;18.884;2022-12-07T04:10:34;99110.13;;;2.86;100.00
56721;BME280;53183;47.412;18.884;2022-12-07T04:13:01;99104.72;;;2.92;100.00
56721;BME280;53183;47.412;18.884;2022-12-07T04:15:28;99114.06;;;3.00;100.00
56721;BME280;53183;47.412;18.884;2022-12-07T04:17:55;99103.53;;;3.03;100.00
56721;BME280;53183;47.412;18.884;2022-12-07T04:20:22;99098.22;;;3.07;100.00
56721;BME280;53183;47.412;18.884;2022-12-07T04:22:49;99104.38;;;3.04;100.00
56721;BME280;53183;47.412;18.884;2022-12-07T04:25:16;99110.38;;;3.08;100.00
56721;BME280;53183;47.412;18.884;2022-12-07T04:27:43;99104.16;;;3.12;100.00
56721;BME280;53183;47.412;18.884;2022-12-07T04:30:11;99097.41;;;3.04;100.00
56721;BME280;53183;47.412;18.884;2022-12-07T04:32:38;99100.00;;;3.06;100.00
56721;BME280;53183;47.412;18.884;2022-12-07T04:35:05;99102.28;;;3.17;100.00
56721;BME280;53183;47.412;18.884;2022-12-07T04:37:33;99101.19;;;3.24;100.00
56721;BME280;53183;47.412;18.884;2022-12-07T04:40:00;99100.16;;;3.29;100.00
56721;BME280;53183;47.412;18.884;2022-12-07T04:42:27;99105.41;;;3.28;100.00
56721;BME280;53183;47.412;18.884;2022-12-07T04:44:54;99103.03;;;3.20;100.00
56721;BME280;53183;47.412;18.884;2022-12-07T04:47:22;99099.66;;;3.17;100.00
56721;BME280;53183;47.412;18.884;2022-12-07T04:49:49;99106.59;;;3.18;100.00
56721;BME280;53183;47.412;18.884;2022-12-07T04:52:16;99104.97;;;3.14;100.00
56721;BME280;53183;47.412;18.884;2022-12-07T04:54:43;99094.44;;;3.17;100.00
56721;BME280;53183;47.412;18.884;2022-12-07T04:57:10;99107.31;;;3.23;100.00
56721;BME280;53183;47.412;18.884;2022-12-07T04:59:37;99108.50;;;3.13;100.00
56721;BME280;53183;47.412;18.884;2022-12-07T05:02:11;99111.63;;;3.24;100.00
56721;BME280;53183;47.412;18.884;2022-12-07T05:04:38;99113.97;;;3.33;100.00
56721;BME280;53183;47.412;18.884;2022-12-07T05:07:05;99116.31;;;3.42;100.00
56721;BME280;53183;47.412;18.884;2022-12-07T05:09:32;99117.37;;;3.35;100.00
56721;BME280;53183;47.412;18.884;2022-12-07T05:11:59;99117.97;;;3.15;100.00
56721;BME280;53183;47.412;18.884;2022-12-07T05:14:26;99122.78;;;2.99;100.00
56721;BME280;53183;47.412;18.884;2022-12-07T05:16:54;99118.47;;;2.98;100.00
56721;BME280;53183;47.412;18.884;2022-12-07T05:19:21;99122.78;;;2.99;100.00
56721;BME280;53183;47.412;18.884;2022-12-07T05:21:48;99111.72;;;2.91;100.00
56721;BME280;53183;47.412;18.884;2022-12-07T05:24:16;99123.34;;;2.79;100.00
56721;BME280;53183;47.412;18.884;2022-12-07T05:26:44;99112.03;;;2.80;100.00
56721;BME280;53183;47.412;18.884;2022-12-07T05:29:16;99109.87;;;2.95;100.00
56721;BME280;53183;47.412;18.884;2022-12-07T05:31:44;99106.41;;;2.94;100.00
56721;BME280;53183;47.412;18.884;2022-12-07T05:34:11;99110.00;;;2.90;100.00
56721;BME280;53183;47.412;18.884;2022-12-07T05:36:38;99110.19;;;2.84;100.00
56721;BME280;53183;47.412;18.884;2022-12-07T05:39:06;99103.78;;;2.94;100.00
56721;BME280;53183;47.412;18.884;2022-12-07T05:41:34;99097.91;;;2.88;100.00
56721;BME280;53183;47.412;18.884;2022-12-07T05:44:20;99109.34;;;2.84;100.00
56721;BME280;53183;47.412;18.884;2022-12-07T05:46:47;99102.37;;;2.82;100.00
56721;BME280;53183;47.412;18.884;2022-12-07T05:49:14;99103.34;;;2.80;100.00
56721;BME280;53183;47.412;18.884;2022-12-07T05:51:41;99110.88;;;2.91;100.00
56721;BME280;53183;47.412;18.884;2022-12-07T05:54:08;99098.12;;;2.80;100.00
56721;BME280;53183;47.412;18.884;2022-12-07T05:56:35;99105.06;;;2.81;100.00
56721;BME280;53183;47.412;18.884;2022-12-07T05:59:03;99107.59;;;2.82;100.00
56721;BME280;53183;47.412;18.884;2022-12-07T06:01:54;99106.75;;;2.82;100.00
56721;BME280;53183;47.412;18.884;2022-12-07T06:04:22;99110.41;;;2.76;100.00
56721;BME280;53183;47.412;18.884;2022-12-07T06:06:51;99111.34;;;2.74;100.00
56721;BME280;53183;47.412;18.884;2022-12-07T06:09:19;99114.97;;;2.68;100.00
56721;BME280;53183;47.412;18.884;2022-12-07T06:11:47;99114.12;;;2.68;100.00
56721;BME280;53183;47.412;18.884;2022-12-07T06:14:32;99115.03;;;2.67;100.00
56721;BME280;53183;47.412;18.884;2022-12-07T06:17:00;99108.69;;;2.75;100.00
56721;BME280;53183;47.412;18.884;2022-12-07T06:19:27;99115.50;;;2.81;100.00
56721;BME280;53183;47.412;18.884;2022-12-07T06:21:54;99106.16;;;2.72;100.00
56721;BME280;53183;47.412;18.884;2022-12-07T06:24:22;99108.00;;;2.69;100.00
56721;BME280;53183;47.412;18.884;2022-12-07T06:26:49;99109.41;;;2.80;100.00
56721;BME280;53183;47.412;18.884;2022-12-07T06:29:17;99109.59;;;2.74;100.00
56721;BME280;53183;47.412;18.884;2022-12-07T06:31:44;99114.03;;;2.71;100.00
56721;BME280;53183;47.412;18.884;2022-12-07T06:34:15;99114.06;;;2.69;100.00
56721;BME280;53183;47.412;18.884;2022-12-07T06:36:42;99119.34;;;2.68;100.00
56721;BME280;53183;47.412;18.884;2022-12-07T06:39:10;99119.28;;;2.69;100.00
56721;BME280;53183;47.412;18.884;2022-12-07T06:41:38;99119.25;;;2.71;100.00
56721;BME280;53183;47.412;18.884;2022-12-07T06:44:05;99126.19;;;2.72;100.00
56721;BME280;53183;47.412;18.884;2022-12-07T06:46:33;99123.41;;;2.78;100.00
56721;BME280;53183;47.412;18.884;2022-12-07T06:49:02;99124.31;;;2.77;100.00
56721;BME280;53183;47.412;18.884;2022-12-07T06:51:31;99133.75;;;2.81;100.00
56721;BME280;53183;47.412;18.884;2022-12-07T06:53:58;99137.19;;;2.83;100.00
56721;BME280;53183;47.412;18.884;2022-12-07T06:56:25;99132.59;;;2.91;100.00
56721;BME280;53183;47.412;18.884;2022-12-07T06:58:52;99139.59;;;2.89;100.00
56721;BME280;53183;47.412;18.884;2022-12-07T07:01:20;99133.69;;;2.82;100.00
56721;BME280;53183;47.412;18.884;2022-12-07T07:03:47;99132.94;;;2.79;100.00
56721;BME280;53183;47.412;18.884;2022-12-07T07:06:14;99134.44;;;2.88;100.00
56721;BME280;53183;47.412;18.884;2022-12-07T07:08:42;99129.16;;;2.89;100.00
56721;BME280;53183;47.412;18.884;2022-12-07T07:11:09;99123.06;;;2.90;100.00
56721;BME280;53183;47.412;18.884;2022-12-07T07:13:37;99127.31;;;2.93;100.00
56721;BME280;53183;47.412;18.884;2022-12-07T07:16:05;99124.59;;;2.97;100.00
56721;BME280;53183;47.412;18.884;2022-12-07T07:18:33;99130.50;;;3.04;100.00
56721;BME280;53183;47.412;18.884;2022-12-07T07:21:00;99135.66;;;3.05;100.00
56721;BME280;53183;47.412;18.884;2022-12-07T07:23:34;99132.16;;;3.07;100.00
56721;BME280;53183;47.412;18.884;2022-12-07T07:26:01;99140.97;;;3.02;100.00
56721;BME280;53183;47.412;18.884;2022-12-07T07:28:29;99137.47;;;3.03;100.00
56721;BME280;53183;47.412;18.884;2022-12-07T07:30:56;99141.69;;;3.08;100.00
56721;BME280;53183;47.412;18.884;2022-12-07T07:33:23;99135.66;;;3.05;100.00
56721;BME280;53183;47.412;18.884;2022-12-07T07:35:50;99137.50;;;3.02;100.00
56721;BME280;53183;47.412;18.884;2022-12-07T07:38:18;99133.28;;;2.98;100.00
56721;BME280;53183;47.412;18.884;2022-12-07T07:40:45;99141.03;;;2.99;100.00
56721;BME280;53183;47.412;18.884;2022-12-07T07:43:12;99143.72;;;2.98;100.00
56721;BME280;53183;47.412;18.884;2022-12-07T07:45:39;99135.75;;;3.02;100.00
56721;BME280;53183;47.412;18.884;2022-12-07T07:48:07;99138.94;;;3.12;100.00
56721;BME280;53183;47.412;18.884;2022-12-07T07:50:34;99139.00;;;3.11;100.00
56721;BME280;53183;47.412;18.884;2022-12-07T07:53:01;99145.81;;;3.16;100.00
56721;BME280;53183;47.412;18.884;2022-12-07T07:55:28;99148.44;;;3.15;100.00
56721;BME280;53183;47.412;18.884;2022-12-07T07:57:56;99135.72;;;3.34;100.00
56721;BME280;53183;47.412;18.884;2022-12-07T08:00:23;99138.94;;;3.42;100.00
56721;BME280;53183;47.412;18.884;2022-12-07T08:02:50;99151.53;;;3.57;100.00
56721;BME280;53183;47.412;18.884;2022-12-07T08:05:17;99148.75;;;3.63;100.00
56721;BME280;53183;47.412;18.884;2022-12-07T08:07:45;99142.69;;;3.61;100.00
56721;BME280;53183;47.412;18.884;2022-12-07T08:10:13;99145.84;;;3.72;100.00
56721;BME280;53183;47.412;18.884;2022-12-07T08:12:42;99149.13;;;3.79;100.00
56721;BME280;53183;47.412;18.884;2022-12-07T08:15:30;99153.94;;;3.91;100.00
56721;BME280;53183;47.412;18.884;2022-12-07T08:17:58;99152.94;;;3.95;100.00
56721;BME280;53183;47.412;18.884;2022-12-07T08:20:26;99158.03;;;4.00;100.00
56721;BME280;53183;47.412;18.884;2022-12-07T08:22:53;99147.63;;;4.25;100.00
56721;BME280;53183;47.412;18.884;2022-12-07T08:25:20;99151.66;;;4.34;100.00
56721;BME280;53183;47.412;18.884;2022-12-07T08:27:49;99146.09;;;4.44;100.00
56721;BME280;53183;47.412;18.884;2022-12-07T08:30:17;99154.03;;;4.41;100.00
56721;BME280;53183;47.412;18.884;2022-12-07T08:32:45;99153.66;;;4.52;100.00
56721;BME280;53183;47.412;18.884;2022-12-07T08:35:13;99153.34;;;4.61;100.00
56721;BME280;53183;47.412;18.884;2022-12-07T08:37:40;99153.50;;;4.57;100.00
56721;BME280;53183;47.412;18.884;2022-12-07T08:40:09;99150.56;;;4.66;100.00
56721;BME280;53183;47.412;18.884;2022-12-07T08:42:37;99147.66;;;4.74;100.00
56721;BME280;53183;47.412;18.884;2022-12-07T08:45:09;99154.97;;;4.89;100.00
56721;BME280;53183;47.412;18.884;2022-12-07T08:47:40;99145.88;;;4.99;100.00
56721;BME280;53183;47.412;18.884;2022-12-07T08:50:10;99149.94;;;5.08;100.00
56721;BME280;53183;47.412;18.884;2022-12-07T08:52:39;99152.38;;;5.12;100.00
56721;BME280;53183;47.412;18.884;2022-12-07T08:55:11;99151.06;;;5.24;100.00
56721;BME280;53183;47.412;18.884;2022-12-07T08:57:38;99150.34;;;5.21;100.00
56721;BME280;53183;47.412;18.884;2022-12-07T09:00:06;99154.09;;;5.37;100.00
56721;BME280;53183;47.412;18.884;2022-12-07T09:02:34;99155.97;;;5.33;100.00
56721;BME280;53183;47.412;18.884;2022-12-07T09:05:02;99153.97;;;5.40;100.00
56721;BME280;53183;47.412;18.884;2022-12-07T09:07:30;99149.41;;;5.45;100.00
56721;BME280;53183;47.412;18.884;2022-12-07T09:10:00;99161.41;;;5.51;100.00
56721;BME280;53183;47.412;18.884;2022-12-07T09:12:28;99156.56;;;5.63;98.66
56721;BME280;53183;47.412;18.884;2022-12-07T09:14:55;99150.19;;;5.69;98.21
56721;BME280;53183;47.412;18.884;2022-12-07T09:17:23;99152.09;;;5.65;98.26
56721;BME280;53183;47.412;18.884;2022-12-07T09:19:50;99145.69;;;5.51;99.49
56721;BME280;53183;47.412;18.884;2022-12-07T09:22:17;99153.09;;;5.63;98.88
56721;BME280;53183;47.412;18.884;2022-12-07T09:24:45;99143.44;;;5.63;97.94
56721;BME280;53183;47.412;18.884;2022-12-07T09:27:12;99155.44;;;5.69;97.57
56721;BME280;53183;47.412;18.884;2022-12-07T09:29:39;99141.91;;;5.58;97.49
56721;BME280;53183;47.412;18.884;2022-12-07T09:32:07;99139.37;;;5.56;98.34
56721;BME280;53183;47.412;18.884;2022-12-07T09:34:37;99136.25;;;5.47;96.95
56721;BME280;53183;47.412;18.884;2022-12-07T09:37:05;99131.78;;;5.49;95.99
56721;BME280;53183;47.412;18.884;2022-12-07T09:39:33;99140.16;;;5.58;95.88
56721;BME280;53183;47.412;18.884;2022-12-07T09:42:03;99142.72;;;5.60;96.66
56721;BME280;53183;47.412;18.884;2022-12-07T09:44:31;99129.78;;;5.77;96.08
56721;BME280;53183;47.412;18.884;2022-12-07T09:46:59;99131.00;;;5.91;95.03
56721;BME280;53183;47.412;18.884;2022-12-07T09:49:31;99128.94;;;5.99;94.44
56721;BME280;53183;47.412;18.884;2022-12-07T09:54:35;99126.75;;;6.10;93.69
56721;BME280;53183;47.412;18.884;2022-12-07T09:57:03;99133.69;;;6.11;93.46
56721;BME280;53183;47.412;18.884;2022-12-07T09:59:30;99133.09;;;6.04;92.92
56721;BME280;53183;47.412;18.884;2022-12-07T10:04:57;99133.41;;;6.19;92.85
56721;BME280;53183;47.412;18.884;2022-12-07T10:07:24;99133.81;;;6.08;94.38
56721;BME280;53183;47.412;18.884;2022-12-07T10:09:51;99129.69;;;6.02;92.79
56721;BME280;53183;47.412;18.884;2022-12-07T10:12:19;99128.81;;;6.02;93.98
56721;BME280;53183;47.412;18.884;2022-12-07T10:15:15;99123.84;;;5.96;94.37
56721;BME280;53183;47.412;18.884;2022-12-07T10:17:48;99124.44;;;6.02;94.37
56721;BME280;53183;47.412;18.884;2022-12-07T10:20:25;99117.94;;;6.11;94.01
56721;BME280;53183;47.412;18.884;2022-12-07T10:25:35;99102.22;;;6.11;93.02
56721;BME280;53183;47.412;18.884;2022-12-07T10:30:31;99099.41;;;6.16;93.11
56721;BME280;53183;47.412;18.884;2022-12-07T10:32:59;99113.38;;;6.37;93.79
56721;BME280;53183;47.412;18.884;2022-12-07T10:35:29;99112.16;;;6.45;92.15
56721;BME280;53183;47.412;18.884;2022-12-07T10:37:59;99109.44;;;6.47;91.16
56721;BME280;53183;47.412;18.884;2022-12-07T10:40:35;99107.50;;;6.52;91.49
56721;BME280;53183;47.412;18.884;2022-12-07T10:56:41;99103.50;;;6.82;88.00
56721;BME280;53183;47.412;18.884;2022-12-07T11:11:09;99099.63;;;6.71;83.74
56721;BME280;53183;47.412;18.884;2022-12-07T11:17:26;99092.81;;;6.67;83.03
56721;BME280;53183;47.412;18.884;2022-12-07T11:20:00;99088.38;;;6.88;82.35
56721;BME280;53183;47.412;18.884;2022-12-07T11:22:45;99092.41;;;6.76;83.49
56721;BME280;53183;47.412;18.884;2022-12-07T11:25:28;99085.75;;;6.88;83.38
56721;BME280;53183;47.412;18.884;2022-12-07T11:31:03;99085.06;;;6.64;82.04
56721;BME280;53183;47.412;18.884;2022-12-07T11:39:10;99091.75;;;6.91;81.49
56721;BME280;53183;47.412;18.884;2022-12-07T11:41:39;99094.78;;;6.82;81.85
56721;BME280;53183;47.412;18.884;2022-12-07T11:47:10;99099.38;;;6.77;80.50
56721;BME280;53183;47.412;18.884;2022-12-07T11:54:52;99088.13;;;6.34;81.54
56721;BME280;53183;47.412;18.884;2022-12-07T11:57:26;99086.75;;;6.25;83.71
56721;BME280;53183;47.412;18.884;2022-12-07T12:00:01;99090.94;;;6.29;84.69
56721;BME280;53183;47.412;18.884;2022-12-07T12:02:39;99087.47;;;6.29;84.96
56721;BME280;53183;47.412;18.884;2022-12-07T12:05:22;99076.19;;;6.27;84.41
56721;BME280;53183;47.412;18.884;2022-12-07T12:08:03;99070.19;;;6.44;84.00
56721;BME280;53183;47.412;18.884;2022-12-07T12:17:22;99058.78;;;6.45;82.21
56721;BME280;53183;47.412;18.884;2022-12-07T12:22:47;99051.06;;;6.21;81.39
56721;BME280;53183;47.412;18.884;2022-12-07T12:27:49;99043.63;;;6.31;80.93
56721;BME280;53183;47.412;18.884;2022-12-07T12:30:30;99047.91;;;6.13;82.41
56721;BME280;53183;47.412;18.884;2022-12-07T12:33:30;99040.25;;;6.29;82.44
56721;BME280;53183;47.412;18.884;2022-12-07T12:46:56;99028.72;;;6.13;84.68
56721;BME280;53183;47.412;18.884;2022-12-07T12:49:42;99030.47;;;6.12;84.06
56721;BME280;53183;47.412;18.884;2022-12-07T12:55:16;99027.69;;;6.15;85.29
56721;BME280;53183;47.412;18.884;2022-12-07T13:00:47;99030.06;;;6.21;83.10
56721;BME280;53183;47.412;18.884;2022-12-07T13:03:29;99035.44;;;6.18;83.42
56721;BME280;53183;47.412;18.884;2022-12-07T13:08:52;99031.50;;;6.28;82.35
56721;BME280;53183;47.412;18.884;2022-12-07T13:25:36;99046.72;;;6.20;78.51
56721;BME280;53183;47.412;18.884;2022-12-07T13:28:16;99047.97;;;6.11;77.28
56721;BME280;53183;47.412;18.884;2022-12-07T13:31:30;99042.00;;;6.08;75.34
56721;BME280;53183;47.412;18.884;2022-12-07T13:33:59;99043.78;;;6.07;76.23
56721;BME280;53183;47.412;18.884;2022-12-07T13:36:30;99046.25;;;6.10;76.08
56721;BME280;53183;47.412;18.884;2022-12-07T13:39:18;99051.00;;;6.02;77.45
56721;BME280;53183;47.412;18.884;2022-12-07T13:41:51;99046.56;;;5.82;78.96
56721;BME280;53183;47.412;18.884;2022-12-07T13:44:19;99044.78;;;5.83;77.06
56721;BME280;53183;47.412;18.884;2022-12-07T13:49:51;99059.03;;;5.76;74.99
56721;BME280;53183;47.412;18.884;2022-12-07T13:52:30;99056.91;;;5.85;76.09
56721;BME280;53183;47.412;18.884;2022-12-07T13:55:00;99053.50;;;5.83;77.25
56721;BME280;53183;47.412;18.884;2022-12-07T13:57:30;99059.03;;;5.76;78.19
56721;BME280;53183;47.412;18.884;2022-12-07T13:59:58;99061.88;;;5.71;80.45
56721;BME280;53183;47.412;18.884;2022-12-07T14:02:31;99055.69;;;5.72;79.88
56721;BME280;53183;47.412;18.884;2022-12-07T14:05:23;99063.75;;;5.68;80.66
56721;BME280;53183;47.412;18.884;2022-12-07T14:07:59;99058.19;;;5.75;81.15
56721;BME280;53183;47.412;18.884;2022-12-07T14:10:39;99060.03;;;5.73;80.60
56721;BME280;53183;47.412;18.884;2022-12-07T14:15:50;99067.88;;;5.53;82.71
56721;BME280;53183;47.412;18.884;2022-12-07T14:18:27;99057.88;;;5.40;82.96
56721;BME280;53183;47.412;18.884;2022-12-07T14:21:23;99065.16;;;5.32;84.22
56721;BME280;53183;47.412;18.884;2022-12-07T14:24:08;99065.84;;;5.37;84.16
56721;BME280;53183;47.412;18.884;2022-12-07T14:26:38;99066.19;;;5.28;84.55
56721;BME280;53183;47.412;18.884;2022-12-07T14:29:20;99064.72;;;5.21;85.34
56721;BME280;53183;47.412;18.884;2022-12-07T14:31:47;99062.47;;;5.12;86.11
56721;BME280;53183;47.412;18.884;2022-12-07T14:34:15;99061.22;;;4.99;86.66
56721;BME280;53183;47.412;18.884;2022-12-07T14:36:42;99061.03;;;5.03;87.25
56721;BME280;53183;47.412;18.884;2022-12-07T14:39:09;99057.81;;;4.97;86.51
56721;BME280;53183;47.412;18.884;2022-12-07T14:41:39;99063.16;;;4.93;86.77
56721;BME280;53183;47.412;18.884;2022-12-07T14:44:21;99053.78;;;4.88;88.14
56721;BME280;53183;47.412;18.884;2022-12-07T14:46:54;99061.63;;;4.88;88.08
56721;BME280;53183;47.412;18.884;2022-12-07T14:49:41;99072.75;;;4.71;88.68
56721;BME280;53183;47.412;18.884;2022-12-07T14:52:16;99069.44;;;4.66;89.79
56721;BME280;53183;47.412;18.884;2022-12-07T14:55:04;99067.72;;;4.65;90.41
56721;BME280;53183;47.412;18.884;2022-12-07T14:57:32;99073.41;;;4.76;88.81
56721;BME280;53183;47.412;18.884;2022-12-07T14:59:59;99068.25;;;4.75;88.96
56721;BME280;53183;47.412;18.884;2022-12-07T15:02:26;99069.44;;;4.66;88.83
56721;BME280;53183;47.412;18.884;2022-12-07T15:04:53;99067.84;;;4.62;89.65
56721;BME280;53183;47.412;18.884;2022-12-07T15:07:20;99067.72;;;4.65;89.18
56721;BME280;53183;47.412;18.884;2022-12-07T15:09:48;99077.88;;;4.49;90.24
56721;BME280;53183;47.412;18.884;2022-12-07T15:12:15;99084.63;;;4.31;90.51
56721;BME280;53183;47.412;18.884;2022-12-07T15:14:42;99084.41;;;4.37;90.05
56721;BME280;53183;47.412;18.884;2022-12-07T15:17:11;99084.84;;;4.25;90.95
56721;BME280;53183;47.412;18.884;2022-12-07T15:19:55;99089.53;;;4.15;91.04
56721;BME280;53183;47.412;18.884;2022-12-07T15:22:22;99097.72;;;4.05;92.17
56721;BME280;53183;47.412;18.884;2022-12-07T15:24:49;99092.75;;;3.97;92.66
56721;BME280;53183;47.412;18.884;2022-12-07T15:27:16;99096.84;;;3.79;92.88
56721;BME280;53183;47.412;18.884;2022-12-07T15:29:44;99102.56;;;3.64;93.61
56721;BME280;53183;47.412;18.884;2022-12-07T15:32:11;99105.59;;;3.50;94.59
56721;BME280;53183;47.412;18.884;2022-12-07T15:34:38;99107.81;;;3.36;95.89
56721;BME280;53183;47.412;18.884;2022-12-07T15:37:07;99107.16;;;3.27;96.46
56721;BME280;53183;47.412;18.884;2022-12-07T15:39:36;99108.91;;;3.27;96.67
56721;BME280;53183;47.412;18.884;2022-12-07T15:42:03;99106.59;;;3.18;96.77
56721;BME280;53183;47.412;18.884;2022-12-07T15:44:31;99104.13;;;3.13;97.85